Time;durP1;ratioP1;P1;durP2;ratioP2;P2;SDS_P1;SDS_P2;PMS_P1;PMS_P2;Temp;Humidity;BMP_temperature;BMP_pressure;BME280_temperature;BME280_humidity;BME280_pressure;Samples;Min_cycle;Max_cycle;Signal;HPM_P1;HPM_P2
2023/04/21 00:01:01;;;;;;;22.80;20.50;;;;;;;;;;5241456;28;20067;-74
2023/04/21 00:03:36;;;;;;;22.63;20.47;;;;;;;;;;5229000;28;20108;-74
2023/04/21 00:06:08;;;;;;;22.67;20.57;;;;;;;;;;5230278;28;20100;-75
2023/04/21 00:08:39;;;;;;;23.03;20.73;;;;;;;;;;5227678;28;20132;-75
2023/04/21 00:11:10;;;;;;;24.73;22.37;;;;;;;;;;5228372;28;20018;-74
2023/04/21 00:13:42;;;;;;;24.30;22.00;;;;;;;;;;5227875;28;20056;-74
2023/04/21 00:16:13;;;;;;;25.60;23.20;;;;;;;;;;5229752;28;20108;-74
2023/04/21 00:18:44;;;;;;;23.80;21.40;;;;;;;;;;5229171;28;20021;-74
2023/04/21 00:21:16;;;;;;;26.03;23.53;;;;;;;;;;5229472;28;20461;-73
2023/04/21 00:23:48;;;;;;;26.40;23.70;;;;;;;;;;5229930;28;20041;-73
2023/04/21 00:26:20;;;;;;;25.83;23.23;;;;;;;;;;5227784;28;20541;-73
2023/04/21 00:28:51;;;;;;;24.80;22.43;;;;;;;;;;5229211;28;20021;-73
2023/04/21 00:31:22;;;;;;;27.73;25.13;;;;;;;;;;5229247;28;20017;-74
2023/04/21 00:33:54;;;;;;;27.17;24.47;;;;;;;;;;5228353;28;20052;-74
2023/04/21 00:36:27;;;;;;;26.27;23.73;;;;;;;;;;5229621;28;20479;-74
2023/04/21 00:38:58;;;;;;;27.13;24.27;;;;;;;;;;5228212;28;20040;-74
2023/04/21 00:41:29;;;;;;;26.10;23.57;;;;;;;;;;5229238;28;20403;-75
2023/04/21 00:44:05;;;;;;;27.40;24.63;;;;;;;;;;5228404;28;20018;-75
2023/04/21 00:46:37;;;;;;;27.13;24.33;;;;;;;;;;5228832;28;20479;-74
2023/04/21 00:49:08;;;;;;;27.33;24.40;;;;;;;;;;5228671;28;20058;-74
2023/04/21 00:51:39;;;;;;;27.43;24.73;;;;;;;;;;5229137;28;20070;-75
2023/04/21 00:54:11;;;;;;;28.17;25.33;;;;;;;;;;5228800;28;20413;-75
2023/04/21 00:56:42;;;;;;;28.47;25.67;;;;;;;;;;5230103;28;20018;-75
2023/04/21 00:59:14;;;;;;;28.37;25.47;;;;;;;;;;5228998;28;20025;-74
2023/04/21 01:01:45;;;;;;;26.47;23.77;;;;;;;;;;5244067;28;20384;-75
2023/04/21 01:04:16;;;;;;;28.27;25.47;;;;;;;;;;5228025;28;20036;-75
2023/04/21 01:06:47;;;;;;;25.83;23.23;;;;;;;;;;5219464;28;20408;-75
2023/04/21 01:09:19;;;;;;;28.50;25.50;;;;;;;;;;5208552;28;20054;-75
2023/04/21 01:12:01;;;;;;;26.60;23.90;;;;;;;;;;5229054;28;20031;-75
2023/04/21 01:14:32;;;;;;;27.33;23.13;;;;;;;;;;5228557;28;20037;-75
2023/04/21 01:17:04;;;;;;;27.07;24.43;;;;;;;;;;5229391;28;20022;-75
2023/04/21 01:19:38;;;;;;;27.67;24.97;;;;;;;;;;5227947;28;20074;-75
2023/04/21 01:22:10;;;;;;;27.40;24.60;;;;;;;;;;5227206;28;20508;-75
2023/04/21 01:24:42;;;;;;;28.27;25.57;;;;;;;;;;5230502;28;20030;-76
2023/04/21 01:27:15;;;;;;;25.77;23.17;;;;;;;;;;5232554;28;20094;-76
2023/04/21 01:29:47;;;;;;;27.77;25.07;;;;;;;;;;5232480;28;20018;-76
2023/04/21 01:32:20;;;;;;;27.10;24.40;;;;;;;;;;5231608;28;20041;-75
2023/04/21 01:34:51;;;;;;;24.97;22.57;;;;;;;;;;5231988;28;20089;-76
2023/04/21 01:37:24;;;;;;;26.73;24.03;;;;;;;;;;5232032;28;20113;-76
2023/04/21 01:39:56;;;;;;;27.43;24.47;;;;;;;;;;5235295;28;20112;-76
2023/04/21 01:42:29;;;;;;;26.70;24.00;;;;;;;;;;5231672;28;20230;-76
2023/04/21 01:45:00;;;;;;;24.57;21.97;;;;;;;;;;5232124;28;20498;-76
2023/04/21 01:47:31;;;;;;;26.17;23.37;;;;;;;;;;5232247;28;20034;-76
2023/04/21 01:50:03;;;;;;;26.90;24.00;;;;;;;;;;5231294;28;20024;-77
2023/04/21 01:52:34;;;;;;;25.30;22.70;;;;;;;;;;5232261;28;20020;-76
2023/04/21 01:55:05;;;;;;;25.77;23.07;;;;;;;;;;5232648;28;20025;-76
2023/04/21 01:57:36;;;;;;;25.97;22.27;;;;;;;;;;5231587;28;20078;-76
2023/04/21 02:00:08;;;;;;;25.00;22.33;;;;;;;;;;5232174;28;20067;-76
2023/04/21 02:02:39;;;;;;;26.00;21.47;;;;;;;;;;5231076;28;20036;-75
2023/04/21 02:05:10;;;;;;;24.83;21.97;;;;;;;;;;5230845;28;20075;-75
2023/04/21 02:07:42;;;;;;;24.73;22.13;;;;;;;;;;5232179;28;20021;-75
2023/04/21 02:10:13;;;;;;;27.03;24.20;;;;;;;;;;5231415;28;20137;-75
2023/04/21 02:12:44;;;;;;;28.17;22.93;;;;;;;;;;5231720;28;20451;-74
2023/04/21 02:15:15;;;;;;;25.43;22.77;;;;;;;;;;5231776;28;20021;-75
2023/04/21 02:17:46;;;;;;;25.83;22.13;;;;;;;;;;5229865;28;20028;-75
2023/04/21 02:20:18;;;;;;;26.03;21.70;;;;;;;;;;5231125;28;20743;-75
2023/04/21 02:22:49;;;;;;;24.93;22.20;;;;;;;;;;5231545;28;20028;-75
2023/04/21 02:25:20;;;;;;;24.93;22.07;;;;;;;;;;5231326;28;20100;-75
2023/04/21 02:27:51;;;;;;;26.50;23.63;;;;;;;;;;5231523;28;20429;-75
2023/04/21 02:30:22;;;;;;;28.63;24.47;;;;;;;;;;5231271;28;20030;-75
2023/04/21 02:32:53;;;;;;;29.43;23.70;;;;;;;;;;5231683;28;20028;-75
2023/04/21 02:35:25;;;;;;;26.07;23.37;;;;;;;;;;5229490;28;20021;-75
2023/04/21 02:37:56;;;;;;;25.60;22.80;;;;;;;;;;5231258;28;20034;-75
2023/04/21 02:40:27;;;;;;;26.23;23.53;;;;;;;;;;5231393;28;20045;-75
2023/04/21 02:42:58;;;;;;;26.00;23.33;;;;;;;;;;5230489;28;21003;-75
2023/04/21 02:45:30;;;;;;;29.33;25.70;;;;;;;;;;5229775;28;20037;-75
2023/04/21 02:48:01;;;;;;;27.63;23.93;;;;;;;;;;5230671;28;20404;-75
2023/04/21 02:50:32;;;;;;;29.97;24.00;;;;;;;;;;5230249;28;20025;-75
2023/04/21 02:53:03;;;;;;;29.83;25.57;;;;;;;;;;5231087;28;20442;-74
2023/04/21 02:55:34;;;;;;;29.00;25.90;;;;;;;;;;5230178;28;20106;-75
2023/04/21 02:58:06;;;;;;;27.27;24.17;;;;;;;;;;5229849;28;20014;-75
2023/04/21 03:00:37;;;;;;;31.27;26.33;;;;;;;;;;5229342;28;20030;-75
2023/04/21 03:03:08;;;;;;;31.80;25.53;;;;;;;;;;5230170;28;20704;-75
2023/04/21 03:05:40;;;;;;;30.80;27.43;;;;;;;;;;5230494;28;20403;-75
2023/04/21 03:08:11;;;;;;;32.53;25.73;;;;;;;;;;5229869;28;20815;-74
2023/04/21 03:10:42;;;;;;;31.97;26.17;;;;;;;;;;5229580;28;20018;-75
2023/04/21 03:13:14;;;;;;;29.43;26.33;;;;;;;;;;5230772;28;20565;-75
2023/04/21 03:15:45;;;;;;;29.33;26.23;;;;;;;;;;5229182;28;20025;-74
2023/04/21 03:18:16;;;;;;;31.00;26.67;;;;;;;;;;5229909;28;20021;-74
2023/04/21 03:20:48;;;;;;;30.90;25.97;;;;;;;;;;5230887;28;20116;-74
2023/04/21 03:23:19;;;;;;;33.07;27.83;;;;;;;;;;5231271;28;20033;-74
2023/04/21 03:25:50;;;;;;;30.77;26.07;;;;;;;;;;5230473;28;20049;-74
2023/04/21 03:28:21;;;;;;;30.77;26.60;;;;;;;;;;5230027;28;20109;-75
2023/04/21 03:30:52;;;;;;;32.87;28.53;;;;;;;;;;5231376;28;20116;-75
2023/04/21 03:33:24;;;;;;;37.23;29.47;;;;;;;;;;5229592;28;20453;-75
2023/04/21 03:35:55;;;;;;;36.13;28.27;;;;;;;;;;5229466;28;20064;-74
2023/04/21 03:38:27;;;;;;;35.30;28.60;;;;;;;;;;5230554;28;20120;-74
2023/04/21 03:40:59;;;;;;;33.80;29.00;;;;;;;;;;5230082;28;20032;-74
2023/04/21 03:43:30;;;;;;;36.60;30.43;;;;;;;;;;5230286;28;20025;-75
2023/04/21 03:46:02;;;;;;;36.23;30.50;;;;;;;;;;5230007;28;20624;-74
2023/04/21 03:48:33;;;;;;;36.87;31.20;;;;;;;;;;5228029;28;20407;-75
2023/04/21 03:51:04;;;;;;;38.93;32.33;;;;;;;;;;5230254;28;20071;-75
2023/04/21 03:53:35;;;;;;;35.30;31.50;;;;;;;;;;5229536;28;20017;-74
2023/04/21 03:56:07;;;;;;;39.43;33.00;;;;;;;;;;5229985;28;20024;-74
2023/04/21 03:58:38;;;;;;;43.97;34.57;;;;;;;;;;5230001;28;20013;-74
2023/04/21 04:01:09;;;;;;;43.57;34.07;;;;;;;;;;5222844;28;20026;-74
2023/04/21 04:03:40;;;;;;;44.63;35.60;;;;;;;;;;5208952;28;20342;-75
2023/04/21 04:06:11;;;;;;;41.50;34.60;;;;;;;;;;5208896;28;20022;-75
2023/04/21 04:08:43;;;;;;;43.40;35.07;;;;;;;;;;5209462;28;20394;-75
2023/04/21 04:11:14;;;;;;;44.30;35.37;;;;;;;;;;5209342;28;20061;-74
2023/04/21 04:13:45;;;;;;;43.87;37.13;;;;;;;;;;5208101;28;20381;-74
2023/04/21 04:16:17;;;;;;;45.07;36.93;;;;;;;;;;5220289;28;20024;-74
2023/04/21 04:18:48;;;;;;;46.93;36.43;;;;;;;;;;5230579;28;20019;-75
2023/04/21 04:21:19;;;;;;;42.90;36.10;;;;;;;;;;5226294;28;20060;-75
2023/04/21 04:23:51;;;;;;;44.37;37.73;;;;;;;;;;5229942;28;20089;-74
2023/04/21 04:26:23;;;;;;;42.47;35.90;;;;;;;;;;5229478;28;20108;-74
2023/04/21 04:28:55;;;;;;;47.23;37.97;;;;;;;;;;5229673;28;20041;-74
2023/04/21 04:31:28;;;;;;;46.53;36.83;;;;;;;;;;5228536;28;20028;-74
2023/04/21 04:33:59;;;;;;;47.83;36.23;;;;;;;;;;5228323;28;20025;-75
2023/04/21 04:36:30;;;;;;;44.77;38.57;;;;;;;;;;5229283;28;20037;-74
2023/04/21 04:39:01;;;;;;;47.83;38.77;;;;;;;;;;5227884;28;20469;-74
2023/04/21 04:41:33;;;;;;;47.30;39.60;;;;;;;;;;5229808;28;20028;-74
2023/04/21 04:44:04;;;;;;;53.77;41.40;;;;;;;;;;5229905;28;20469;-74
2023/04/21 04:46:35;;;;;;;49.43;40.70;;;;;;;;;;5229496;28;20029;-74
2023/04/21 04:49:06;;;;;;;47.40;38.37;;;;;;;;;;5228938;28;20021;-74
2023/04/21 04:51:38;;;;;;;47.23;38.97;;;;;;;;;;5228806;28;20097;-74
2023/04/21 04:54:09;;;;;;;49.50;40.53;;;;;;;;;;5229364;28;20025;-74
2023/04/21 04:56:40;;;;;;;55.23;41.60;;;;;;;;;;5229611;28;20032;-75
2023/04/21 04:59:11;;;;;;;48.53;40.50;;;;;;;;;;5229993;28;20104;-75
2023/04/21 05:01:42;;;;;;;51.30;41.80;;;;;;;;;;5233280;28;20167;-75
2023/04/21 05:04:15;;;;;;;51.70;42.73;;;;;;;;;;5231992;28;20026;-75
2023/04/21 05:06:46;;;;;;;55.63;42.57;;;;;;;;;;5232870;28;20029;-75
2023/04/21 05:09:18;;;;;;;57.20;44.27;;;;;;;;;;5232738;28;20053;-74
2023/04/21 05:11:49;;;;;;;52.67;41.90;;;;;;;;;;5231065;28;20032;-75
2023/04/21 05:14:20;;;;;;;58.70;47.40;;;;;;;;;;5232539;28;20028;-75
2023/04/21 05:16:51;;;;;;;54.53;45.70;;;;;;;;;;5233096;28;20734;-75
2023/04/21 05:19:22;;;;;;;59.30;46.80;;;;;;;;;;5231559;28;20018;-75
2023/04/21 05:21:59;;;;;;;60.23;47.43;;;;;;;;;;5231638;28;20052;-75
2023/04/21 05:24:31;;;;;;;63.77;48.30;;;;;;;;;;5230763;28;20919;-75
2023/04/21 05:27:02;;;;;;;60.13;47.87;;;;;;;;;;5232695;28;20608;-75
2023/04/21 05:29:34;;;;;;;61.07;46.57;;;;;;;;;;5232666;28;20021;-75
2023/04/21 05:32:05;;;;;;;61.33;46.90;;;;;;;;;;5215301;28;20091;-75
2023/04/21 05:34:37;;;;;;;58.60;46.50;;;;;;;;;;5211061;28;20018;-74
2023/04/21 05:37:09;;;;;;;60.57;47.40;;;;;;;;;;5223449;28;20109;-74
2023/04/21 05:39:40;;;;;;;63.57;46.67;;;;;;;;;;5231800;28;20086;-74
2023/04/21 05:42:11;;;;;;;63.80;47.77;;;;;;;;;;5230097;28;20022;-74
2023/04/21 05:44:43;;;;;;;61.97;47.43;;;;;;;;;;5231932;28;20025;-75
2023/04/21 05:47:14;;;;;;;57.97;45.97;;;;;;;;;;5223376;28;20038;-74
2023/04/21 05:49:48;;;;;;;59.00;46.80;;;;;;;;;;5222015;28;20056;-74
2023/04/21 05:52:20;;;;;;;61.42;46.65;;;;;;;;;;5229113;28;20030;-74
2023/04/21 05:54:51;;;;;;;59.50;48.03;;;;;;;;;;5229203;28;20100;-74
2023/04/21 05:57:23;;;;;;;62.77;48.17;;;;;;;;;;5231804;28;20476;-74
2023/04/21 05:59:54;;;;;;;58.30;46.93;;;;;;;;;;5232308;28;20108;-74
2023/04/21 06:02:25;;;;;;;61.83;49.27;;;;;;;;;;5231920;28;20040;-75
2023/04/21 06:04:56;;;;;;;59.67;47.70;;;;;;;;;;5230904;28;20025;-74
2023/04/21 06:07:27;;;;;;;62.93;48.07;;;;;;;;;;5231972;28;20013;-74
2023/04/21 06:09:58;;;;;;;61.33;47.80;;;;;;;;;;5229975;28;20500;-73
2023/04/21 06:12:30;;;;;;;59.67;46.40;;;;;;;;;;5229610;28;20025;-73
2023/04/21 06:15:01;;;;;;;66.03;49.90;;;;;;;;;;5232658;28;20325;-74
2023/04/21 06:17:32;;;;;;;60.13;47.03;;;;;;;;;;5231691;28;20030;-74
2023/04/21 06:20:04;;;;;;;58.77;45.77;;;;;;;;;;5230557;28;20028;-75
2023/04/21 06:22:35;;;;;;;55.30;45.37;;;;;;;;;;5231757;28;20032;-74
2023/04/21 06:25:06;;;;;;;54.40;44.30;;;;;;;;;;5231566;28;20032;-74
2023/04/21 06:27:38;;;;;;;50.50;42.53;;;;;;;;;;5231591;28;20021;-74
2023/04/21 06:30:09;;;;;;;52.20;42.93;;;;;;;;;;5231182;28;20310;-74
2023/04/21 06:32:40;;;;;;;50.87;43.63;;;;;;;;;;5231320;28;20024;-74
2023/04/21 06:35:13;;;;;;;54.63;46.00;;;;;;;;;;5226792;28;20029;-75
2023/04/21 06:37:45;;;;;;;55.07;44.93;;;;;;;;;;5231660;28;20017;-75
2023/04/21 06:40:16;;;;;;;51.63;43.10;;;;;;;;;;5231537;28;20032;-75
2023/04/21 06:42:47;;;;;;;50.60;44.43;;;;;;;;;;5228588;28;20025;-75
2023/04/21 06:45:19;;;;;;;52.87;44.50;;;;;;;;;;5227102;28;20013;-75
2023/04/21 06:47:50;;;;;;;48.07;41.13;;;;;;;;;;5218008;28;20022;-75
2023/04/21 06:50:21;;;;;;;47.93;41.13;;;;;;;;;;5230145;28;20033;-75
2023/04/21 06:52:52;;;;;;;50.03;40.43;;;;;;;;;;5211147;28;20045;-75
2023/04/21 06:55:24;;;;;;;47.10;40.57;;;;;;;;;;5222280;28;20024;-75
2023/04/21 06:57:55;;;;;;;49.00;42.07;;;;;;;;;;5230283;28;20583;-75
2023/04/21 07:00:26;;;;;;;51.13;43.47;;;;;;;;;;5230324;28;20043;-75
2023/04/21 07:02:57;;;;;;;51.43;43.67;;;;;;;;;;5230360;28;20025;-75
2023/04/21 07:05:28;;;;;;;49.30;40.83;;;;;;;;;;5230584;28;20022;-74
2023/04/21 07:08:00;;;;;;;44.10;39.27;;;;;;;;;;5231505;28;20033;-74
2023/04/21 07:10:31;;;;;;;40.77;36.17;;;;;;;;;;5218236;28;20060;-74
2023/04/21 07:13:02;;;;;;;44.93;38.03;;;;;;;;;;5217154;28;20109;-74
2023/04/21 07:15:34;;;;;;;47.27;37.93;;;;;;;;;;5213670;28;20653;-75
2023/04/21 07:18:05;;;;;;;44.23;38.53;;;;;;;;;;5310592;27;20026;-75
2023/04/21 07:20:36;;;;;;;41.30;36.87;;;;;;;;;;5232780;27;20059;-75
2023/04/21 07:23:07;;;;;;;41.03;35.50;;;;;;;;;;5225761;27;20021;-75
2023/04/21 07:25:38;;;;;;;36.83;32.93;;;;;;;;;;5219762;28;20041;-75
2023/04/21 07:28:09;;;;;;;39.57;33.77;;;;;;;;;;5230239;28;20033;-75
2023/04/21 07:30:41;;;;;;;36.47;30.47;;;;;;;;;;5229931;28;20090;-75
2023/04/21 07:33:12;;;;;;;33.87;30.30;;;;;;;;;;5229869;28;20017;-74
2023/04/21 07:35:43;;;;;;;30.93;27.60;;;;;;;;;;5229396;28;20049;-75
2023/04/21 07:38:14;;;;;;;31.97;28.67;;;;;;;;;;5230096;28;20022;-74
2023/04/21 07:40:46;;;;;;;29.77;26.60;;;;;;;;;;5230068;28;20022;-74
2023/04/21 07:43:18;;;;;;;30.80;25.83;;;;;;;;;;5229663;28;20535;-75
2023/04/21 07:45:51;;;;;;;23.97;21.50;;;;;;;;;;5224235;28;20265;-75
2023/04/21 07:48:23;;;;;;;25.00;22.30;;;;;;;;;;5231598;27;20533;-74
2023/04/21 07:50:54;;;;;;;23.83;21.43;;;;;;;;;;5207731;28;20030;-74
2023/04/21 07:53:26;;;;;;;25.50;21.53;;;;;;;;;;5221407;28;20051;-74
2023/04/21 07:55:57;;;;;;;23.90;21.30;;;;;;;;;;5310893;27;20095;-74
2023/04/21 07:58:28;;;;;;;22.93;20.73;;;;;;;;;;5209131;28;20021;-73
2023/04/21 08:00:59;;;;;;;22.87;20.57;;;;;;;;;;5229854;28;20033;-73
2023/04/21 08:03:30;;;;;;;20.53;18.27;;;;;;;;;;5226748;28;20026;-73
2023/04/21 08:06:02;;;;;;;21.17;18.97;;;;;;;;;;5228504;28;20037;-73
2023/04/21 08:08:33;;;;;;;19.87;17.93;;;;;;;;;;5226639;28;20181;-73
2023/04/21 08:11:04;;;;;;;20.43;18.40;;;;;;;;;;5226596;28;20309;-74
2023/04/21 08:13:36;;;;;;;18.87;17.03;;;;;;;;;;5226853;28;20092;-74
2023/04/21 08:16:07;;;;;;;18.87;16.97;;;;;;;;;;5225965;28;20029;-74
2023/04/21 08:18:38;;;;;;;19.90;17.80;;;;;;;;;;5225564;28;20044;-74
2023/04/21 08:21:09;;;;;;;18.13;16.43;;;;;;;;;;5225948;28;20705;-74
2023/04/21 08:23:41;;;;;;;16.17;14.57;;;;;;;;;;5223551;28;20009;-74
2023/04/21 08:26:13;;;;;;;16.70;15.10;;;;;;;;;;5242865;27;20026;-74
2023/04/21 08:28:44;;;;;;;16.03;14.53;;;;;;;;;;5252595;27;20034;-73
2023/04/21 08:31:15;;;;;;;16.53;14.93;;;;;;;;;;5229086;28;20044;-74
2023/04/21 08:33:47;;;;;;;17.03;15.33;;;;;;;;;;5223005;28;20014;-74
2023/04/21 08:36:19;;;;;;;15.73;14.03;;;;;;;;;;5221804;28;20551;-75
2023/04/21 08:38:50;;;;;;;15.57;14.07;;;;;;;;;;5224286;28;20400;-75
2023/04/21 08:41:21;;;;;;;18.08;15.20;;;;;;;;;;5220940;28;20029;-75
2023/04/21 08:43:52;;;;;;;16.52;15.02;;;;;;;;;;5224458;28;20021;-75
2023/04/21 08:46:26;;;;;;;16.75;15.15;;;;;;;;;;5221477;28;20018;-74
2023/04/21 08:48:57;;;;;;;14.48;13.18;;;;;;;;;;5210595;28;20059;-74
2023/04/21 08:51:30;;;;;;;14.80;13.30;;;;;;;;;;5222744;28;20568;-73
2023/04/21 08:54:01;;;;;;;15.32;13.82;;;;;;;;;;5217083;28;20033;-74
2023/04/21 08:56:32;;;;;;;15.48;13.93;;;;;;;;;;5216691;28;20266;-74
2023/04/21 08:59:03;;;;;;;14.50;12.98;;;;;;;;;;5213045;28;20105;-74
2023/04/21 09:01:56;;;;;;;12.88;11.77;;;;;;;;;;5221887;28;20018;-74
2023/04/21 09:04:28;;;;;;;16.80;13.93;;;;;;;;;;5232553;27;20048;-74
2023/04/21 09:07:00;;;;;;;13.35;12.15;;;;;;;;;;5227704;28;20027;-74
2023/04/21 09:09:31;;;;;;;13.60;12.35;;;;;;;;;;5226776;28;20060;-74
2023/04/21 09:12:02;;;;;;;12.60;11.50;;;;;;;;;;5227402;28;20113;-75
2023/04/21 09:14:34;;;;;;;12.77;10.98;;;;;;;;;;5226689;28;20024;-74
2023/04/21 09:17:05;;;;;;;11.57;10.45;;;;;;;;;;5226524;28;20022;-75
2023/04/21 09:19:36;;;;;;;12.88;11.57;;;;;;;;;;5226511;28;20101;-74
2023/04/21 09:22:07;;;;;;;12.23;10.95;;;;;;;;;;5227450;28;20066;-74
2023/04/21 09:24:43;;;;;;;11.80;10.55;;;;;;;;;;5226791;28;20026;-74
2023/04/21 09:27:15;;;;;;;12.45;11.10;;;;;;;;;;5227118;28;20021;-74
2023/04/21 09:29:47;;;;;;;14.55;13.25;;;;;;;;;;5226193;28;20053;-74
2023/04/21 09:32:18;;;;;;;13.65;12.35;;;;;;;;;;5225662;28;20552;-75
2023/04/21 09:34:50;;;;;;;13.30;11.70;;;;;;;;;;5227255;28;20032;-75
2023/04/21 09:37:23;;;;;;;12.43;10.38;;;;;;;;;;5226780;28;20145;-75
2023/04/21 09:39:55;;;;;;;10.52;9.35;;;;;;;;;;5227309;28;20029;-75
2023/04/21 09:42:29;;;;;;;9.90;9.00;;;;;;;;;;5226246;28;20078;-75
2023/04/21 09:45:01;;;;;;;9.30;8.50;;;;;;;;;;5226886;28;20025;-75
2023/04/21 09:47:33;;;;;;;13.88;9.00;;;;;;;;;;5227119;28;20627;-75
2023/04/21 09:50:06;;;;;;;8.80;8.07;;;;;;;;;;5230639;28;20033;-75
2023/04/21 09:52:37;;;;;;;9.23;8.32;;;;;;;;;;5230027;27;20021;-75
2023/04/21 09:55:12;;;;;;;10.27;9.30;;;;;;;;;;5230433;28;20025;-75
2023/04/21 09:57:45;;;;;;;10.13;9.20;;;;;;;;;;5229770;28;20025;-74
2023/04/21 10:00:17;;;;;;;8.80;8.00;;;;;;;;;;5230154;28;20028;-74
2023/04/21 10:02:49;;;;;;;9.43;8.52;;;;;;;;;;5228937;28;20025;-74
2023/04/21 10:05:21;;;;;;;9.47;8.57;;;;;;;;;;5230217;28;20100;-75
2023/04/21 10:07:52;;;;;;;10.55;9.45;;;;;;;;;;5230182;28;20170;-75
2023/04/21 10:10:26;;;;;;;9.68;8.77;;;;;;;;;;5227797;28;20057;-75
2023/04/21 10:12:57;;;;;;;9.95;8.95;;;;;;;;;;5230242;28;20415;-76
2023/04/21 10:15:30;;;;;;;12.63;11.32;;;;;;;;;;5229371;28;20029;-76
2023/04/21 10:18:17;;;;;;;13.65;12.38;;;;;;;;;;5229293;28;20021;-75
2023/04/21 10:20:52;;;;;;;13.85;12.40;;;;;;;;;;5230356;28;20431;-75
2023/04/21 10:23:30;;;;;;;14.10;12.48;;;;;;;;;;5228337;28;20025;-76
2023/04/21 10:26:07;;;;;;;14.15;12.85;;;;;;;;;;5229599;28;20074;-76
2023/04/21 10:28:39;;;;;;;12.30;11.10;;;;;;;;;;5229370;28;20026;-76
2023/04/21 10:31:18;;;;;;;12.80;11.60;;;;;;;;;;5229605;28;20064;-76
2023/04/21 10:34:05;;;;;;;12.63;10.60;;;;;;;;;;5228622;28;20404;-76
2023/04/21 10:36:45;;;;;;;12.68;11.45;;;;;;;;;;5230114;28;20017;-76
2023/04/21 10:39:26;;;;;;;12.05;10.95;;;;;;;;;;5229301;28;20133;-76
2023/04/21 10:42:18;;;;;;;12.80;11.48;;;;;;;;;;5229298;28;20038;-76
2023/04/21 10:44:52;;;;;;;13.70;12.30;;;;;;;;;;5229682;28;20036;-76
2023/04/21 10:47:28;;;;;;;12.75;11.45;;;;;;;;;;5228164;28;20037;-76
2023/04/21 10:50:09;;;;;;;13.38;12.07;;;;;;;;;;5230053;28;20440;-75
2023/04/21 10:52:43;;;;;;;10.85;9.85;;;;;;;;;;5229015;28;20029;-75
2023/04/21 10:55:15;;;;;;;12.23;10.88;;;;;;;;;;5229171;28;20071;-75
2023/04/21 10:57:47;;;;;;;12.15;11.05;;;;;;;;;;5226812;28;20017;-76
2023/04/21 11:00:20;;;;;;;12.40;10.95;;;;;;;;;;5229553;28;20105;-75
2023/04/21 11:02:52;;;;;;;11.40;10.30;;;;;;;;;;5209353;28;20032;-75
2023/04/21 11:05:30;;;;;;;11.85;10.73;;;;;;;;;;5210277;28;20033;-75
2023/04/21 11:08:02;;;;;;;11.25;10.25;;;;;;;;;;5210009;28;20030;-75
2023/04/21 11:10:48;;;;;;;11.85;10.60;;;;;;;;;;5207930;28;20082;-75
2023/04/21 11:13:20;;;;;;;10.68;9.73;;;;;;;;;;5206487;28;20018;-75
2023/04/21 11:16:02;;;;;;;11.02;9.93;;;;;;;;;;5208812;28;20321;-75
2023/04/21 11:18:40;;;;;;;11.40;10.18;;;;;;;;;;5207164;28;20067;-75
2023/04/21 11:21:16;;;;;;;11.13;10.02;;;;;;;;;;5207896;28;20026;-75
2023/04/21 11:23:49;;;;;;;8.68;7.88;;;;;;;;;;5207084;28;20508;-75
2023/04/21 11:26:33;;;;;;;9.60;8.70;;;;;;;;;;5207860;28;20044;-75
2023/04/21 11:29:06;;;;;;;10.10;9.20;;;;;;;;;;5208875;28;20086;-75
2023/04/21 11:31:38;;;;;;;9.75;8.63;;;;;;;;;;5309067;27;20112;-75
2023/04/21 11:34:10;;;;;;;7.23;6.53;;;;;;;;;;5207694;28;20377;-75
2023/04/21 11:36:42;;;;;;;9.00;8.10;;;;;;;;;;5207841;28;20033;-75
2023/04/21 11:39:16;;;;;;;8.63;7.73;;;;;;;;;;5206411;28;20104;-75
2023/04/21 11:41:49;;;;;;;10.50;9.27;;;;;;;;;;5220718;28;20488;-75
2023/04/21 11:44:36;;;;;;;10.60;9.50;;;;;;;;;;5228122;28;20025;-75
2023/04/21 11:47:26;;;;;;;10.67;9.33;;;;;;;;;;5225997;28;20029;-75
2023/04/21 11:50:01;;;;;;;12.67;8.50;;;;;;;;;;5227343;28;20022;-75
2023/04/21 11:52:32;;;;;;;8.67;7.87;;;;;;;;;;5210426;28;20017;-75
2023/04/21 11:55:19;;;;;;;9.83;8.37;;;;;;;;;;5206633;28;20079;-75
2023/04/21 11:57:51;;;;;;;9.43;8.53;;;;;;;;;;5208083;28;20017;-75
2023/04/21 12:00:22;;;;;;;10.53;9.13;;;;;;;;;;5207040;28;20476;-75
2023/04/21 12:02:55;;;;;;;9.13;8.20;;;;;;;;;;5207000;28;20022;-75
2023/04/21 12:05:33;;;;;;;8.70;7.80;;;;;;;;;;5206454;28;20025;-75
2023/04/21 12:08:05;;;;;;;10.37;8.87;;;;;;;;;;5206953;28;20096;-74
2023/04/21 12:10:36;;;;;;;8.93;7.97;;;;;;;;;;5209191;28;21391;-75
2023/04/21 12:13:07;;;;;;;13.90;9.20;;;;;;;;;;5227916;28;20018;-75
2023/04/21 12:15:38;;;;;;;9.73;8.73;;;;;;;;;;5226461;28;20066;-75
2023/04/21 12:18:13;;;;;;;14.10;11.70;;;;;;;;;;5224953;28;20589;-75
2023/04/21 12:20:49;;;;;;;12.70;11.50;;;;;;;;;;5228498;28;20086;-75
2023/04/21 12:23:20;;;;;;;11.57;10.40;;;;;;;;;;5227395;28;20023;-75
2023/04/21 12:25:51;;;;;;;13.00;11.70;;;;;;;;;;5228239;28;20021;-75
2023/04/21 12:28:22;;;;;;;12.43;11.33;;;;;;;;;;5227700;28;20021;-75
2023/04/21 12:30:53;;;;;;;12.43;11.13;;;;;;;;;;5228310;28;20340;-75
2023/04/21 12:33:25;;;;;;;13.63;11.17;;;;;;;;;;5226614;28;20021;-75
2023/04/21 12:35:56;;;;;;;9.80;8.80;;;;;;;;;;5228021;28;20078;-75
2023/04/21 12:38:27;;;;;;;9.37;8.47;;;;;;;;;;5225870;28;20018;-75
2023/04/21 12:40:58;;;;;;;12.80;10.47;;;;;;;;;;5228118;28;20037;-75
2023/04/21 12:43:30;;;;;;;12.27;10.97;;;;;;;;;;5227892;28;20022;-75
2023/04/21 12:46:01;;;;;;;11.77;10.53;;;;;;;;;;5227318;28;20041;-75
2023/04/21 12:48:33;;;;;;;13.80;10.43;;;;;;;;;;5226179;28;20021;-75
2023/04/21 12:51:04;;;;;;;12.77;10.37;;;;;;;;;;5229131;28;20037;-74
2023/04/21 12:53:39;;;;;;;13.27;11.43;;;;;;;;;;5228273;28;20473;-74
2023/04/21 12:56:10;;;;;;;13.30;11.00;;;;;;;;;;5227173;28;20048;-73
2023/04/21 12:58:43;;;;;;;12.43;11.13;;;;;;;;;;5224122;28;20018;-73
2023/04/21 13:01:15;;;;;;;13.07;11.60;;;;;;;;;;5212817;28;20033;-73
2023/04/21 13:03:46;;;;;;;13.70;11.03;;;;;;;;;;5223878;28;20544;-73
2023/04/21 13:06:17;;;;;;;13.13;11.20;;;;;;;;;;5228497;28;20028;-73
2023/04/21 13:08:49;;;;;;;11.93;10.50;;;;;;;;;;5222670;28;20484;-73
2023/04/21 13:11:20;;;;;;;12.07;10.47;;;;;;;;;;5224474;28;20498;-73
2023/04/21 13:13:51;;;;;;;11.27;10.07;;;;;;;;;;5227877;28;20026;-73
2023/04/21 13:16:23;;;;;;;11.10;9.60;;;;;;;;;;5219958;28;20089;-74
2023/04/21 13:18:54;;;;;;;10.27;9.20;;;;;;;;;;5224598;28;20165;-74
2023/04/21 13:21:25;;;;;;;10.10;8.93;;;;;;;;;;5220524;28;20679;-76
2023/04/21 13:23:56;;;;;;;11.93;9.10;;;;;;;;;;5229561;28;20029;-74
2023/04/21 13:26:29;;;;;;;10.70;9.40;;;;;;;;;;5233049;28;20036;-74
2023/04/21 13:29:01;;;;;;;12.47;9.30;;;;;;;;;;5241274;28;20055;-74
2023/04/21 13:31:32;;;;;;;10.33;9.13;;;;;;;;;;5225146;28;20152;-75
2023/04/21 13:34:03;;;;;;;9.37;8.23;;;;;;;;;;5225335;28;20060;-75
2023/04/21 13:36:35;;;;;;;9.47;8.47;;;;;;;;;;5228871;28;20013;-75
2023/04/21 13:39:10;;;;;;;10.07;8.90;;;;;;;;;;5230052;28;20025;-75
2023/04/21 13:41:41;;;;;;;11.43;9.20;;;;;;;;;;5229589;28;20025;-76
2023/04/21 13:44:13;;;;;;;11.00;9.47;;;;;;;;;;5226544;28;20082;-77
2023/04/21 13:46:44;;;;;;;10.63;9.53;;;;;;;;;;5218856;28;20176;-77
2023/04/21 13:49:15;;;;;;;12.83;9.57;;;;;;;;;;5231834;28;20124;-76
2023/04/21 13:51:46;;;;;;;12.87;10.13;;;;;;;;;;5233885;27;20021;-76
2023/04/21 13:54:18;;;;;;;13.23;11.93;;;;;;;;;;5237000;28;20077;-76
2023/04/21 13:56:50;;;;;;;14.13;12.73;;;;;;;;;;5223714;28;20032;-76
2023/04/21 13:59:21;;;;;;;13.03;11.77;;;;;;;;;;5230123;28;20511;-76
2023/04/21 14:01:52;;;;;;;13.50;12.10;;;;;;;;;;5224390;28;20029;-76
2023/04/21 14:04:24;;;;;;;14.53;12.57;;;;;;;;;;5220929;28;20060;-75
2023/04/21 14:06:55;;;;;;;16.23;12.97;;;;;;;;;;5232486;27;20025;-75
2023/04/21 14:09:26;;;;;;;15.53;13.63;;;;;;;;;;5219311;27;20139;-75
2023/04/21 14:11:57;;;;;;;13.17;11.87;;;;;;;;;;5220559;28;20452;-76
2023/04/21 14:14:29;;;;;;;16.10;14.17;;;;;;;;;;5221876;28;20039;-78
2023/04/21 14:17:00;;;;;;;17.17;13.47;;;;;;;;;;5222969;28;20561;-78
2023/04/21 14:19:31;;;;;;;15.60;13.10;;;;;;;;;;5222035;27;20379;-78
2023/04/21 14:22:02;;;;;;;15.43;13.20;;;;;;;;;;5219841;28;20033;-77
2023/04/21 14:24:34;;;;;;;14.73;13.23;;;;;;;;;;5220378;28;20528;-77
2023/04/21 14:27:05;;;;;;;14.93;12.47;;;;;;;;;;5221674;28;20025;-77
2023/04/21 14:29:36;;;;;;;20.80;18.70;;;;;;;;;;5237601;28;20060;-77
2023/04/21 14:32:07;;;;;;;21.50;17.60;;;;;;;;;;5220118;28;20033;-77
2023/04/21 14:34:41;;;;;;;18.70;16.90;;;;;;;;;;5227887;28;20112;-77
2023/04/21 14:37:12;;;;;;;18.05;16.27;;;;;;;;;;5236373;28;20024;-77
2023/04/21 14:39:43;;;;;;;18.63;16.47;;;;;;;;;;5225205;28;20025;-77
2023/04/21 14:42:15;;;;;;;19.90;17.90;;;;;;;;;;5220248;27;20026;-77
2023/04/21 14:44:46;;;;;;;18.57;16.77;;;;;;;;;;5221337;27;20631;-77
2023/04/21 14:47:17;;;;;;;20.10;18.07;;;;;;;;;;5219569;28;20053;-77
2023/04/21 14:49:51;;;;;;;18.93;16.50;;;;;;;;;;5222344;28;20029;-77